Terminal Aerodrome Forecast
Issued by NWS

Home | Current Version | Previous Version | Text Only | Print | Product List | Glossary Off
Versions: 1 2 3 4 5 6 7 8 9 10 11 12 13 14 15 16 17 18 19 20

000
FTUS43 KPAH 220101 AAA
TAFCGI
TAF AMD
KCGI 220101Z 2201/2224 16006KT P6SM SCT028 BKN090
      TEMPO 2201/2204 SCT020 BKN028
     FM220400 17014G23KT P6SM OVC035
     FM220900 17018G30KT 6SM SHRA OVC035
     FM221300 17017G28KT P6SM VCSH OVC020
     FM221600 20017G32KT P6SM SCT060=

USA.gov is the U.S. government's official web portal to all federal, state and local government web resources and services.